Time;durP1;ratioP1;P1;durP2;ratioP2;P2;SDS_P1;SDS_P2;PMS_P1;PMS_P2;Temp;Humidity;BMP_temperature;BMP_pressure;BME280_temperature;BME280_humidity;BME280_pressure;Samples;Min_cycle;Max_cycle;Signal;HPM_P1;HPM_P2
2021/06/16 00:00:12;;;;;;;;;19.50;19.00;;;;;23.94;49.42;101257.38;6300850;22;45410;-93
2021/06/16 00:02:39;;;;;;;;;18.25;16.75;;;;;23.91;49.53;101249.66;6301002;22;45284;-93
2021/06/16 00:05:07;;;;;;;;;19.75;19.00;;;;;23.85;49.47;101247.53;6275314;22;45223;-93
2021/06/16 00:07:32;;;;;;;;;19.50;19.50;;;;;23.83;49.91;101250.31;6274142;22;47620;-92
2021/06/16 00:09:58;;;;;;;;;19.25;19.25;;;;;23.82;49.55;101253.09;6274652;22;45235;-93
2021/06/16 00:12:24;;;;;;;;;20.75;18.50;;;;;23.75;49.55;101245.63;6301113;22;45736;-93
2021/06/16 00:14:51;;;;;;;;;17.00;16.50;;;;;23.72;49.86;101237.94;6301108;22;45434;-92
2021/06/16 00:17:17;;;;;;;;;20.25;20.25;;;;;23.71;50.13;101244.22;6300835;22;47356;-93
2021/06/16 00:19:42;;;;;;;;;17.50;16.75;;;;;23.67;50.39;101236.63;6300528;22;45384;-93
2021/06/16 00:22:07;;;;;;;;;20.75;17.75;;;;;23.65;49.99;101234.09;6300540;22;45949;-94
2021/06/16 00:24:34;;;;;;;;;14.25;13.25;;;;;23.62;50.10;101240.50;6301380;22;45384;-93
2021/06/16 00:26:59;;;;;;;;;16.50;15.75;;;;;23.60;50.24;101234.50;6274703;22;48105;-93
2021/06/16 00:29:25;;;;;;;;;18.25;16.50;;;;;23.58;50.45;101227.63;6300310;22;45250;-93
2021/06/16 00:31:50;;;;;;;;;16.75;15.75;;;;;23.53;51.01;101225.38;6274892;22;45186;-93
2021/06/16 00:34:15;;;;;;;;;19.25;17.75;;;;;23.49;50.75;101227.44;6301178;22;45240;-93
2021/06/16 00:36:42;;;;;;;;;21.25;18.75;;;;;23.48;50.95;101224.91;6300500;22;47154;-93
2021/06/16 00:39:08;;;;;;;;;15.50;15.50;;;;;23.44;50.97;101223.47;6300824;22;45770;-93
2021/06/16 00:41:34;;;;;;;;;20.00;17.50;;;;;23.38;51.12;101219.53;6273689;22;45325;-92
2021/06/16 00:44:00;;;;;;;;;18.25;18.25;;;;;23.33;50.69;101217.22;6301121;22;45341;-92
2021/06/16 00:46:25;;;;;;;;;16.75;16.75;;;;;23.34;51.30;101220.75;6300021;22;47180;-93
2021/06/16 00:48:51;;;;;;;;;16.50;16.50;;;;;23.29;51.00;101215.75;6300336;22;45320;-93
2021/06/16 00:51:16;;;;;;;;;19.00;18.00;;;;;23.26;51.05;101212.53;6300529;22;44727;-93
2021/06/16 00:53:41;;;;;;;;;13.75;13.50;;;;;23.25;51.27;101214.34;6274395;22;45349;-94
2021/06/16 00:56:07;;;;;;;;;17.50;17.50;;;;;23.20;51.68;101217.38;6300118;22;46841;-93
2021/06/16 00:58:33;;;;;;;;;18.75;16.50;;;;;23.17;51.36;101216.78;6300102;22;45314;-93
2021/06/16 01:01:07;;;;;;;;;20.00;19.50;;;;;23.16;51.79;101220.41;6300877;22;45584;-93
2021/06/16 01:03:42;;;;;;;;;17.50;17.50;;;;;23.14;52.02;101211.75;6300570;22;45392;-93
2021/06/16 01:06:27;;;;;;;;;17.00;15.75;;;;;23.10;51.62;101208.50;6300306;22;47142;-93
2021/06/16 01:08:59;;;;;;;;;17.25;17.25;;;;;23.04;51.87;101208.97;6300020;22;45547;-93
2021/06/16 01:11:28;;;;;;;;;18.75;15.75;;;;;22.97;52.07;101190.09;6274305;22;45282;-93
2021/06/16 01:14:04;;;;;;;;;16.00;15.00;;;;;22.97;52.16;101200.69;6300901;22;45421;-93
2021/06/16 01:16:44;;;;;;;;;16.50;15.75;;;;;22.95;52.11;101198.16;6274125;22;47353;-93
2021/06/16 01:19:28;;;;;;;;;17.00;16.00;;;;;22.95;52.43;101197.31;6300125;22;45280;-93
2021/06/16 01:22:01;;;;;;;;;16.75;16.00;;;;;22.91;52.52;101188.75;6300021;22;45346;-93
2021/06/16 01:24:30;;;;;;;;;17.50;17.00;;;;;22.89;52.46;101185.41;6274783;22;45117;-93
2021/06/16 01:26:58;;;;;;;;;17.50;17.50;;;;;22.85;52.27;101181.31;6300100;22;47252;-93
2021/06/16 01:29:34;;;;;;;;;15.50;15.00;;;;;22.85;52.71;101186.63;6300034;22;45247;-93
2021/06/16 01:32:01;;;;;;;;;15.00;15.00;;;;;22.78;52.72;101178.31;6300335;22;45269;-93
2021/06/16 01:34:27;;;;;;;;;18.75;18.25;;;;;22.77;52.41;101173.97;6274390;22;45224;-93
2021/06/16 01:36:56;;;;;;;;;15.00;15.00;;;;;22.74;52.82;101176.88;6273998;22;47140;-93
2021/06/16 01:39:27;;;;;;;;;15.50;15.00;;;;;22.75;52.64;101181.22;6273921;22;45697;-92
2021/06/16 01:41:55;;;;;;;;;18.25;15.50;;;;;22.69;52.93;101171.94;6300291;22;45091;-93
2021/06/16 01:44:22;;;;;;;;;15.00;15.00;;;;;22.69;53.06;101176.41;6274485;22;45369;-93
2021/06/16 01:46:50;;;;;;;;;15.75;15.25;;;;;22.67;52.81;101183.63;6300070;22;47031;-93
2021/06/16 01:49:18;;;;;;;;;11.25;11.25;;;;;22.64;52.90;101174.13;6274118;22;45271;-92
2021/06/16 01:51:43;;;;;;;;;17.75;17.75;;;;;22.64;53.05;101174.13;6299526;22;45258;-92
2021/06/16 01:54:10;;;;;;;;;17.00;16.00;;;;;22.62;53.41;101172.56;6301951;22;45349;-93
2021/06/16 01:56:37;;;;;;;;;15.75;15.75;;;;;22.56;53.10;101171.25;6275411;22;47171;-92
2021/06/16 01:59:05;;;;;;;;;17.00;15.00;;;;;22.52;53.26;101160.06;6301512;22;45262;-93
2021/06/16 02:01:31;;;;;;;;;18.75;15.75;;;;;22.55;54.02;101162.44;6277303;22;45306;-93
2021/06/16 02:03:57;;;;;;;;;19.50;16.75;;;;;22.49;53.80;101160.25;6301840;22;44777;-93
2021/06/16 02:06:27;;;;;;;;;19.00;18.50;;;;;22.51;54.09;101165.44;6275041;22;47345;-93
2021/06/16 02:08:53;;;;;;;;;17.50;16.00;;;;;22.46;54.15;101165.81;6275458;22;45442;-93
2021/06/16 02:11:21;;;;;;;;;16.50;16.50;;;;;22.45;53.88;101158.81;6275514;22;45368;-93
2021/06/16 02:13:55;;;;;;;;;19.50;17.00;;;;;22.41;53.66;101158.22;6301518;22;45452;-93
2021/06/16 02:16:42;;;;;;;;;19.00;19.00;;;;;22.42;53.89;101156.41;6301508;22;47343;-93
2021/06/16 02:19:12;;;;;;;;;18.00;16.75;;;;;22.35;54.07;101149.94;6301535;22;45973;-93
2021/06/16 02:21:39;;;;;;;;;18.25;16.25;;;;;22.34;54.41;101148.22;6275679;22;45302;-93
2021/06/16 02:24:06;;;;;;;;;15.00;15.00;;;;;22.32;54.39;101148.38;6301287;22;45249;-93
2021/06/16 02:26:32;;;;;;;;;20.00;18.75;;;;;22.28;54.42;101147.75;6275150;22;47118;-93
2021/06/16 02:28:57;;;;;;;;;20.50;18.75;;;;;22.28;54.75;101149.56;6301271;22;45147;-93
2021/06/16 02:31:23;;;;;;;;;15.75;14.75;;;;;22.26;54.60;101154.16;6275683;22;45184;-93
2021/06/16 02:33:50;;;;;;;;;19.75;18.00;;;;;22.20;55.18;101138.72;6301565;22;45317;-93
2021/06/16 02:36:19;;;;;;;;;19.50;18.00;;;;;22.20;54.87;101138.72;6300979;22;47424;-92
2021/06/16 02:38:46;;;;;;;;;19.75;18.75;;;;;22.17;54.75;101131.84;6301196;22;45295;-93
2021/06/16 02:41:14;;;;;;;;;19.25;18.50;;;;;22.12;55.34;101123.44;6275282;22;45202;-93
2021/06/16 02:43:40;;;;;;;;;18.75;17.25;;;;;22.12;55.21;101131.41;6301469;22;45234;-93
2021/06/16 02:46:09;;;;;;;;;17.00;17.00;;;;;22.09;55.11;101121.03;6300747;22;47846;-93
2021/06/16 02:48:35;;;;;;;;;19.50;18.75;;;;;22.06;55.45;101124.75;6301311;22;45172;-92
2021/06/16 02:51:01;;;;;;;;;20.75;17.50;;;;;22.03;54.95;101122.34;6301234;22;45444;-93
2021/06/16 02:53:28;;;;;;;;;20.00;19.00;;;;;22.03;55.04;101131.16;6301640;22;45491;-93
2021/06/16 02:56:00;;;;;;;;;21.00;18.25;;;;;21.98;55.46;101122.72;6300694;22;47318;-93
2021/06/16 02:58:27;;;;;;;;;21.00;19.50;;;;;21.94;55.29;101115.97;6300931;22;45273;-93
2021/06/16 03:01:00;;;;;;;;;22.50;19.75;;;;;21.98;55.60;101121.91;6301189;22;45144;-93
2021/06/16 03:03:27;;;;;;;;;20.25;19.00;;;;;21.93;56.10;101116.94;6274666;22;45436;-93
2021/06/16 03:05:54;;;;;;;;;23.00;21.00;;;;;21.90;56.03;101122.50;6274994;22;47413;-93
2021/06/16 03:08:22;;;;;;;;;23.50;23.50;;;;;21.87;55.99;101117.41;6300853;22;45871;-93
2021/06/16 03:10:49;;;;;;;;;21.50;20.50;;;;;21.84;55.73;101129.09;6301216;22;45469;-92
2021/06/16 03:13:16;;;;;;;;;19.75;18.75;;;;;21.82;56.10;101122.22;6301396;22;45154;-93
2021/06/16 03:15:43;;;;;;;;;20.75;19.50;;;;;21.81;55.81;101121.41;6300478;22;47306;-93
2021/06/16 03:18:11;;;;;;;;;19.25;18.25;;;;;21.78;56.38;101123.44;6300898;22;45222;-92
2021/06/16 03:20:38;;;;;;;;;20.00;19.50;;;;;21.78;56.33;101132.22;6301387;22;45272;-92
2021/06/16 03:23:04;;;;;;;;;22.25;20.50;;;;;21.75;56.16;101122.72;6301583;22;45493;-93
2021/06/16 03:25:30;;;;;;;;;21.00;19.75;;;;;21.72;56.15;101120.28;6300883;22;47175;-94
2021/06/16 03:27:56;;;;;;;;;23.25;23.25;;;;;21.68;56.26;101118.84;6300961;22;45232;-93
2021/06/16 03:30:24;;;;;;;;;22.00;20.75;;;;;21.69;56.49;101125.81;6275208;22;45291;-93
2021/06/16 03:32:53;;;;;;;;;21.50;20.00;;;;;21.64;56.19;101125.31;6301467;22;45469;-92
2021/06/16 03:35:19;;;;;;;;;18.75;18.75;;;;;21.62;56.84;101124.59;6274733;22;47791;-93
2021/06/16 03:37:46;;;;;;;;;18.25;18.25;;;;;21.60;56.78;101123.88;6274774;22;45266;-94
2021/06/16 03:40:12;;;;;;;;;22.00;22.00;;;;;21.59;56.78;101125.69;6300802;22;45286;-92
2021/06/16 03:42:39;;;;;;;;;19.00;18.50;;;;;21.56;56.79;101122.44;6301240;22;45257;-93
2021/06/16 03:45:07;;;;;;;;;23.25;20.75;;;;;21.56;56.92;101122.44;6274957;22;47322;-93
2021/06/16 03:47:36;;;;;;;;;19.75;19.50;;;;;21.55;56.77;101124.22;6274445;22;45419;-93
2021/06/16 03:50:05;;;;;;;;;21.50;19.00;;;;;21.52;56.78;101121.78;6300920;22;45266;-93
2021/06/16 03:52:32;;;;;;;;;20.75;19.50;;;;;21.49;57.00;101117.59;6300682;22;45337;-93
2021/06/16 03:54:59;;;;;;;;;19.00;18.50;;;;;21.49;57.44;101127.34;6300647;22;47278;-93
2021/06/16 03:57:25;;;;;;;;;18.00;18.00;;;;;21.45;57.10;101116.16;6301163;22;45593;-92
2021/06/16 03:59:52;;;;;;;;;24.75;20.75;;;;;21.48;56.84;101123.03;6274784;22;45450;-93
2021/06/16 04:02:20;;;;;;;;;19.25;19.25;;;;;21.46;57.32;101128.41;6276774;22;45317;-93
2021/06/16 04:04:46;;;;;;;;;22.00;20.50;;;;;21.42;57.31;101116.38;6274768;22;47076;-93
2021/06/16 04:07:18;;;;;;;;;24.75;24.25;;;;;21.42;57.78;101118.19;6300757;22;45735;-93
2021/06/16 04:09:48;;;;;;;;;23.00;21.25;;;;;21.38;57.68;101108.78;6301302;22;45316;-93
2021/06/16 04:12:13;;;;;;;;;20.00;20.00;;;;;21.41;57.52;101114.69;6275260;22;45267;-93
2021/06/16 04:14:40;;;;;;;;;23.75;22.00;;;;;21.36;57.79;101109.75;6300610;22;47001;-93
2021/06/16 04:17:07;;;;;;;;;23.50;23.00;;;;;21.39;57.66;101113.13;6301643;22;45253;-93
2021/06/16 04:19:32;;;;;;;;;24.00;22.50;;;;;21.36;58.04;101112.41;6300871;22;45381;-93
2021/06/16 04:21:58;;;;;;;;;23.75;23.00;;;;;21.38;57.85;101114.09;6301072;22;45612;-93
2021/06/16 04:24:23;;;;;;;;;21.25;19.50;;;;;21.39;57.97;101121.06;6300625;22;48587;-93
2021/06/16 04:26:49;;;;;;;;;22.75;22.75;;;;;21.39;58.13;101115.75;6299957;22;45583;-92
2021/06/16 04:29:14;;;;;;;;;22.50;21.75;;;;;21.37;58.15;101118.53;6300751;22;45411;-93
2021/06/16 04:31:39;;;;;;;;;23.75;20.75;;;;;21.40;58.35;101120.94;6301133;22;45417;-93
2021/06/16 04:34:05;;;;;;;;;21.25;20.25;;;;;21.42;58.30;101115.56;6300481;22;46921;-93
2021/06/16 04:36:31;;;;;;;;;25.25;23.00;;;;;21.40;57.90;101109.50;6300971;22;45307;-93
2021/06/16 04:38:56;;;;;;;;;22.50;21.50;;;;;21.42;58.44;101105.78;6301145;22;45218;-94
2021/06/16 04:41:21;;;;;;;;;22.00;22.00;;;;;21.44;58.34;101100.38;6274621;22;45311;-92
2021/06/16 04:43:47;;;;;;;;;24.75;23.00;;;;;21.43;58.30;101098.69;6300345;22;47137;-93
2021/06/16 04:46:12;;;;;;;;;24.50;22.75;;;;;21.47;58.71;101097.47;6300475;22;45823;-93
2021/06/16 04:48:42;;;;;;;;;24.25;24.25;;;;;21.50;58.60;101094.59;6300750;22;45242;-94
2021/06/16 04:51:07;;;;;;;;;24.75;23.75;;;;;21.52;58.75;101099.78;6275008;22;45290;-93
2021/06/16 04:53:33;;;;;;;;;21.25;20.50;;;;;21.57;58.67;101102.94;6273892;22;47045;-93
2021/06/16 04:55:58;;;;;;;;;25.00;23.00;;;;;21.55;58.60;101094.25;6300549;22;45483;-93
2021/06/16 04:58:24;;;;;;;;;22.50;21.50;;;;;21.58;58.44;101094.03;6300606;22;45258;-93
2021/06/16 05:00:53;;;;;;;;;23.00;21.25;;;;;21.62;58.43;101083.06;6300833;22;45536;-92
2021/06/16 05:03:18;;;;;;;;;24.50;24.00;;;;;21.66;58.53;101086.31;6300378;22;47166;-93
2021/06/16 05:05:44;;;;;;;;;20.50;20.50;;;;;21.70;58.71;101082.50;6274002;22;45172;-92
2021/06/16 05:08:09;;;;;;;;;20.25;19.25;;;;;21.75;58.53;101084.78;6300360;22;45306;-93
2021/06/16 05:10:35;;;;;;;;;24.25;21.25;;;;;21.80;58.50;101084.44;6300614;22;45467;-93
2021/06/16 05:13:00;;;;;;;;;21.00;20.75;;;;;21.86;58.71;101081.31;6299682;22;47308;-93
2021/06/16 05:15:26;;;;;;;;;20.00;19.75;;;;;21.88;58.53;101076.72;6274602;22;45145;-93
2021/06/16 05:17:51;;;;;;;;;22.75;20.25;;;;;21.91;58.60;101081.78;6300463;22;45370;-93
2021/06/16 05:20:16;;;;;;;;;23.00;20.00;;;;;21.95;58.27;101079.72;6275649;22;45243;-93
2021/06/16 05:22:45;;;;;;;;;23.75;23.25;;;;;22.02;58.66;101083.56;6300339;22;47089;-93
2021/06/16 05:25:11;;;;;;;;;22.25;21.00;;;;;22.05;58.19;101080.69;6300903;22;45439;-93
2021/06/16 05:27:37;;;;;;;;;21.50;20.50;;;;;22.08;58.16;101074.31;6300854;22;45242;-93
2021/06/16 05:30:05;;;;;;;;;23.00;21.50;;;;;22.15;58.22;101076.34;6276045;22;45461;-93
2021/06/16 05:32:30;;;;;;;;;20.25;19.00;;;;;22.18;58.51;101077.91;6275821;22;48296;-92
2021/06/16 05:34:56;;;;;;;;;22.50;20.25;;;;;22.24;58.11;101074.75;6275232;22;46009;-93
2021/06/16 05:37:22;;;;;;;;;25.00;24.50;;;;;22.31;58.32;101077.75;6301787;22;45367;-94
2021/06/16 05:39:48;;;;;;;;;21.00;20.50;;;;;22.36;58.15;101077.38;6302147;22;45342;-93
2021/06/16 05:42:13;;;;;;;;;21.50;21.50;;;;;22.40;57.62;101078.81;6301418;22;47093;-93
2021/06/16 05:44:38;;;;;;;;;22.25;20.50;;;;;22.42;58.08;101075.09;6302070;22;45330;-93
2021/06/16 05:47:04;;;;;;;;;18.50;18.50;;;;;22.48;58.13;101075.53;6301687;22;45449;-94
2021/06/16 05:49:30;;;;;;;;;23.25;21.25;;;;;22.54;57.41;101078.56;6275643;22;45306;-94
2021/06/16 05:51:56;;;;;;;;;24.50;22.75;;;;;22.58;57.40;101073.84;6301159;22;48068;-93
2021/06/16 05:54:22;;;;;;;;;25.25;25.25;;;;;22.63;57.31;101070.84;6301192;22;45345;-92
2021/06/16 05:56:47;;;;;;;;;29.50;25.50;;;;;22.70;57.16;101077.31;6301604;22;45635;-93
2021/06/16 05:59:13;;;;;;;;;21.25;20.25;;;;;22.71;57.50;101065.72;6275813;22;45266;-93
2021/06/16 06:01:38;;;;;;;;;21.25;19.75;;;;;22.81;57.25;101077.25;6300678;22;47038;-93
2021/06/16 06:04:07;;;;;;;;;23.25;23.25;;;;;22.84;56.59;101073.50;6301374;22;45254;-93
2021/06/16 06:06:34;;;;;;;;;23.50;21.25;;;;;22.90;56.60;101072.13;6276067;22;45151;-94
2021/06/16 06:09:00;;;;;;;;;25.25;20.50;;;;;22.99;56.68;101078.50;6275607;22;45325;-93
2021/06/16 06:11:25;;;;;;;;;23.75;21.25;;;;;23.02;56.03;101068.47;6275641;22;46984;-93
2021/06/16 06:13:51;;;;;;;;;20.75;20.75;;;;;23.09;55.03;101079.41;6302091;22;45560;-94
2021/06/16 06:16:16;;;;;;;;;21.50;21.25;;;;;23.15;55.70;101072.75;6301941;22;45404;-93
2021/06/16 06:18:43;;;;;;;;;22.75;21.50;;;;;23.21;55.34;101070.44;6275769;22;45310;-93
2021/06/16 06:21:09;;;;;;;;;21.00;19.75;;;;;23.28;55.39;101072.56;6302251;22;48098;-93
2021/06/16 06:23:34;;;;;;;;;22.00;20.75;;;;;23.33;54.75;101073.84;6275820;22;45406;-93
2021/06/16 06:26:00;;;;;;;;;21.50;20.00;;;;;23.38;54.66;101078.78;6276942;22;45196;-93
2021/06/16 06:28:25;;;;;;;;;24.25;21.50;;;;;23.47;54.36;101080.66;6302003;22;45667;-94
2021/06/16 06:30:50;;;;;;;;;21.25;18.75;;;;;23.51;54.48;101075.09;6276353;22;47108;-92
2021/06/16 06:33:16;;;;;;;;;25.00;24.25;;;;;23.58;54.26;101077.09;6276211;22;45358;-92
2021/06/16 06:35:41;;;;;;;;;22.75;21.00;;;;;23.62;53.92;101072.34;6302417;22;45314;-93
2021/06/16 06:38:07;;;;;;;;;24.00;23.00;;;;;23.68;54.46;101077.13;6301744;22;45235;-93
2021/06/16 06:40:33;;;;;;;;;21.75;19.50;;;;;23.74;54.30;101059.78;6301068;22;47224;-94
2021/06/16 06:42:59;;;;;;;;;20.00;18.50;;;;;23.81;54.32;101065.41;6300941;22;45403;-94
2021/06/16 06:45:24;;;;;;;;;23.00;19.25;;;;;23.86;53.67;101061.38;6300883;22;45292;-94
2021/06/16 06:47:50;;;;;;;;;23.50;20.75;;;;;23.96;53.88;101068.53;6301754;22;45325;-93
2021/06/16 06:50:16;;;;;;;;;16.25;16.25;;;;;24.00;53.27;101061.97;6274842;22;47006;-93
2021/06/16 06:52:43;;;;;;;;;20.75;20.75;;;;;24.07;53.58;101065.75;6274285;22;45139;-93
2021/06/16 06:55:10;;;;;;;;;15.00;15.00;;;;;24.12;52.74;101068.06;6299332;22;45352;-94
2021/06/16 06:57:36;;;;;;;;;20.25;19.00;;;;;24.21;52.83;101064.56;6273337;22;44725;-93
2021/06/16 07:00:02;;;;;;;;;20.50;19.00;;;;;24.24;52.83;101058.13;6298882;22;47091;-94
2021/06/16 07:02:27;;;;;;;;;18.75;18.50;;;;;24.29;52.54;101062.06;6299179;22;45279;-93
2021/06/16 07:04:53;;;;;;;;;20.75;19.25;;;;;24.39;52.89;101059.41;6299337;22;45261;-93
2021/06/16 07:07:18;;;;;;;;;18.25;17.75;;;;;24.44;52.56;101053.69;6273724;22;45701;-94
2021/06/16 07:09:48;;;;;;;;;19.25;19.00;;;;;24.49;52.66;101053.28;6298925;22;46847;-93
2021/06/16 07:12:14;;;;;;;;;19.25;18.00;;;;;24.55;52.24;101047.41;6299635;22;45361;-94
2021/06/16 07:14:40;;;;;;;;;19.25;17.25;;;;;24.65;52.22;101048.25;6272879;22;45287;-93
2021/06/16 07:17:06;;;;;;;;;19.25;17.50;;;;;24.71;52.12;101041.50;6273363;22;45382;-94
2021/06/16 07:19:32;;;;;;;;;17.50;17.00;;;;;24.80;51.78;101043.31;6299252;22;48507;-93
2021/06/16 07:21:58;;;;;;;;;16.75;16.25;;;;;24.89;51.39;101044.31;6272913;22;45238;-94
2021/06/16 07:24:23;;;;;;;;;17.50;15.50;;;;;25.00;51.38;101047.81;6298970;22;45665;-94
2021/06/16 07:26:49;;;;;;;;;17.50;16.00;;;;;25.10;51.02;101048.63;6299189;22;45391;-93
2021/06/16 07:29:14;;;;;;;;;17.50;16.75;;;;;25.20;51.27;101051.28;6298740;22;48215;-94
2021/06/16 07:31:40;;;;;;;;;17.50;16.75;;;;;25.25;51.27;101049.03;6272870;22;45262;-93
2021/06/16 07:34:05;;;;;;;;;17.00;17.00;;;;;25.29;50.68;101038.91;6273010;22;45458;-93
2021/06/16 07:36:30;;;;;;;;;17.00;15.00;;;;;25.34;50.88;101044.66;6299263;22;45388;-95
2021/06/16 07:38:56;;;;;;;;;15.50;15.00;;;;;25.41;50.50;101045.72;6272651;22;47007;-93
2021/06/16 07:41:21;;;;;;;;;18.00;16.75;;;;;25.44;50.12;101034.81;6273142;22;45333;-94
2021/06/16 07:43:47;;;;;;;;;15.75;14.00;;;;;25.51;49.26;101044.88;6298929;22;45431;-94
2021/06/16 07:46:12;;;;;;;;;17.50;17.00;;;;;25.53;49.25;101035.75;6272976;22;45471;-94
2021/06/16 07:48:38;;;;;;;;;16.75;13.75;;;;;25.57;49.45;101029.19;6298994;22;48131;-94
2021/06/16 07:51:03;;;;;;;;;14.50;12.75;;;;;25.68;49.83;101024.66;6298740;22;46469;-94
2021/06/16 07:53:29;;;;;;;;;14.25;13.75;;;;;25.77;49.15;101026.41;6293040;22;152884;-95
2021/06/16 07:55:54;;;;;;;;;13.25;12.75;;;;;25.86;49.20;101028.19;6301281;22;45201;-94
2021/06/16 07:58:20;;;;;;;;;16.00;12.25;;;;;25.97;48.96;101023.63;6300804;22;48035;-93
2021/06/16 08:00:45;;;;;;;;;17.00;14.25;;;;;26.05;48.78;101015.72;6301016;22;45199;-93
2021/06/16 08:03:11;;;;;;;;;14.00;12.75;;;;;26.09;48.95;101013.56;6301209;22;44635;-93
2021/06/16 08:05:36;;;;;;;;;17.50;14.25;;;;;26.19;48.66;101019.69;6301605;22;45420;-92
2021/06/16 08:08:02;;;;;;;;;16.75;15.75;;;;;26.27;47.90;101019.81;6301434;22;46927;-93
2021/06/16 08:10:30;;;;;;;;;15.50;15.00;;;;;26.34;48.06;101024.53;6301030;22;45241;-94
2021/06/16 08:12:56;;;;;;;;;16.25;13.50;;;;;26.35;48.05;101011.06;6301773;22;45793;-94
2021/06/16 08:15:21;;;;;;;;;12.25;12.25;;;;;26.45;48.13;101007.44;6301058;22;45297;-93
2021/06/16 08:17:49;;;;;;;;;12.00;12.00;;;;;26.54;48.22;101006.53;6300879;22;47221;-94
2021/06/16 08:20:14;;;;;;;;;15.75;14.25;;;;;26.64;48.00;101001.94;6302699;22;44665;-94
2021/06/16 08:22:40;;;;;;;;;14.00;12.50;;;;;26.77;47.97;101000.69;6302932;22;45279;-94
2021/06/16 08:25:10;;;;;;;;;14.25;14.25;;;;;26.88;47.44;100988.94;6277046;22;45660;-94
2021/06/16 08:27:36;;;;;;;;;18.00;17.00;;;;;26.95;47.07;101001.50;6301307;22;47068;-95
2021/06/16 08:30:01;;;;;;;;;15.50;14.25;;;;;27.00;46.00;101000.22;6300482;22;45393;-95
2021/06/16 08:32:27;;;;;;;;;16.25;13.50;;;;;26.98;45.90;100995.03;6300926;22;45263;-94
2021/06/16 08:34:52;;;;;;;;;13.25;13.25;;;;;27.05;45.84;100995.22;6300814;22;45441;-94
2021/06/16 08:37:18;;;;;;;;;12.50;11.00;;;;;27.13;46.32;100995.28;6274293;22;47062;-95
2021/06/16 08:39:43;;;;;;;;;11.50;11.00;;;;;27.26;46.11;100986.00;6274464;22;45176;-94
2021/06/16 08:42:10;;;;;;;;;11.75;10.00;;;;;27.31;45.43;100986.38;6274022;22;45215;-94
2021/06/16 08:44:36;;;;;;;;;10.75;10.25;;;;;27.41;44.75;100987.09;6300749;22;45257;-94
2021/06/16 08:47:04;;;;;;;;;10.25;10.25;;;;;27.49;44.60;100988.91;6273712;22;47238;-93
2021/06/16 08:49:29;;;;;;;;;14.25;11.50;;;;;27.59;44.47;100987.00;6274183;22;45381;-93
2021/06/16 08:51:57;;;;;;;;;11.25;10.50;;;;;27.71;44.34;100982.19;6301639;22;45297;-94
2021/06/16 08:54:23;;;;;;;;;13.00;13.00;;;;;27.77;43.62;100982.53;6274441;22;45636;-94
2021/06/16 08:56:49;;;;;;;;;11.75;9.75;;;;;27.83;44.25;100985.41;6274116;22;48427;-93
2021/06/16 08:59:14;;;;;;;;;11.75;10.75;;;;;27.96;43.85;100984.91;6300429;22;45493;-93
2021/06/16 09:01:40;;;;;;;;;11.00;11.00;;;;;28.04;43.44;100977.94;6275287;22;44665;-95
2021/06/16 09:04:05;;;;;;;;;10.50;10.50;;;;;28.15;43.36;100989.13;6302033;22;45301;-95
2021/06/16 09:06:31;;;;;;;;;10.50;10.00;;;;;28.23;43.34;100976.81;6275023;22;48192;-94
2021/06/16 09:09:00;;;;;;;;;10.50;10.00;;;;;28.39;42.99;100979.47;6301853;22;45652;-95
2021/06/16 09:11:27;;;;;;;;;11.00;10.00;;;;;28.56;43.22;100979.47;6302065;22;45332;-96
2021/06/16 09:14:12;;;;;;;;;11.25;10.25;;;;;28.70;42.82;100975.28;6275042;22;45617;-95
2021/06/16 09:16:38;;;;;;;;;10.75;10.00;;;;;28.84;42.60;100976.44;6301162;22;48063;-95
2021/06/16 09:19:25;;;;;;;;;15.50;13.75;;;;;28.93;41.77;100963.88;6301796;22;45279;-96
2021/06/16 09:22:07;;;;;;;;;12.67;11.33;;;;;29.06;41.75;100969.53;6301637;22;45128;-95
2021/06/16 09:24:54;;;;;;;;;9.25;9.25;;;;;29.23;41.53;100972.16;6275460;22;45364;-94
2021/06/16 09:27:43;;;;;;;;;11.50;10.00;;;;;29.44;41.77;100968.03;6275396;22;47230;-94
2021/06/16 09:30:23;;;;;;;;;8.67;8.67;;;;;29.61;41.09;100963.44;6301572;22;45559;-95
2021/06/16 09:32:56;;;;;;;;;10.00;9.25;;;;;29.73;41.03;100954.00;6301366;22;45451;-94
2021/06/16 09:35:26;;;;;;;;;9.50;8.25;;;;;29.86;40.19;100955.28;6275277;22;45478;-95
2021/06/16 09:37:52;;;;;;;;;9.50;8.25;;;;;29.94;40.31;100954.38;6301567;22;47545;-95
2021/06/16 09:40:29;;;;;;;;;8.33;7.00;;;;;30.06;39.93;100947.56;6274757;22;45791;-95
2021/06/16 09:43:00;;;;;;;;;9.00;8.67;;;;;30.22;40.03;100941.25;6275784;22;45310;-93
2021/06/16 09:45:26;;;;;;;;;8.00;7.00;;;;;30.43;39.72;100942.44;6275588;22;45554;-95
2021/06/16 09:47:51;;;;;;;;;7.67;7.67;;;;;30.63;39.23;100944.56;6274704;22;47954;-93
2021/06/16 09:50:25;;;;;;;;;10.33;10.33;;;;;30.83;38.21;100942.22;6275547;22;45181;-95
2021/06/16 09:52:54;;;;;;;;;8.00;8.00;;;;;30.99;38.14;100949.25;6301189;22;45248;-94
2021/06/16 09:55:27;;;;;;;;;8.00;8.00;;;;;31.16;37.69;100941.00;6301403;22;45404;-94
2021/06/16 09:58:10;;;;;;;;;11.00;10.67;;;;;31.26;36.90;100943.38;6297980;22;48261;-95
2021/06/16 10:00:47;;;;;;;;;10.33;10.00;;;;;31.39;37.15;100940.06;6273377;22;44839;-94
2021/06/16 10:03:18;;;;;;;;;10.67;9.00;;;;;31.57;37.16;100945.84;6272758;22;45275;-95
2021/06/16 10:06:02;;;;;;;;;7.75;7.25;;;;;31.80;37.00;100950.22;6273665;22;45370;-93
2021/06/16 10:08:28;;;;;;;;;10.00;10.00;;;;;31.97;35.18;100955.38;6301708;22;48148;-94
2021/06/16 10:10:54;;;;;;;;;8.00;8.00;;;;;32.03;35.85;100948.41;6275874;22;45254;-95
2021/06/16 10:13:20;;;;;;;;;8.75;8.75;;;;;32.20;35.84;100941.72;6301558;22;45163;-94
2021/06/16 10:15:46;;;;;;;;;9.00;8.67;;;;;32.33;35.29;100932.06;6276023;22;45232;-93
2021/06/16 10:18:12;;;;;;;;;9.33;7.67;;;;;32.54;35.54;100944.69;6275307;22;48368;-93
2021/06/16 10:20:37;;;;;;;;;11.00;9.00;;;;;32.68;34.32;100942.94;6300735;22;45183;-94
2021/06/16 10:23:03;;;;;;;;;8.75;8.75;;;;;32.77;34.71;100949.81;6299168;22;45330;-95
2021/06/16 10:25:28;;;;;;;;;9.00;7.00;;;;;32.79;33.61;100947.75;6274632;22;45351;-94
2021/06/16 10:27:57;;;;;;;;;10.00;10.00;;;;;32.86;33.02;100941.56;6300898;22;47462;-94
2021/06/16 10:30:48;;;;;;;;;;;;;;;;;;;;;
2021/06/16 10:33:32;;;;;;;;;8.33;8.33;;;;;33.20;33.65;100937.19;6275295;22;68639;-94
2021/06/16 10:36:16;;;;;;;;;7.33;7.33;;;;;33.41;33.50;100935.41;6301758;22;45519;-95
2021/06/16 10:39:07;;;;;;;;;11.67;10.00;;;;;33.63;33.69;100922.63;6301365;22;47256;-95
2021/06/16 10:41:47;;;;;;;;;7.00;7.00;;;;;33.87;32.57;100930.34;6187530;22;45501;-94
2021/06/16 10:44:19;;;;;;;;;8.00;8.00;;;;;33.97;32.73;100923.47;6187645;22;45230;-96
2021/06/16 10:47:05;;;;;;;;;4.33;4.33;;;;;34.16;32.90;100912.09;6213081;22;45278;-95
2021/06/16 10:49:43;;;;;;;;;11.67;9.67;;;;;34.38;32.56;100918.06;6187563;22;47119;-95
2021/06/16 10:52:10;;;;;;;;;9.25;8.50;;;;;34.50;32.33;100908.31;6186695;22;45442;-95
2021/06/16 10:54:37;;;;;;;;;7.75;7.75;;;;;34.64;31.75;100905.59;6187719;22;45240;-95
2021/06/16 10:57:09;;;;;;;;;8.75;8.75;;;;;34.67;31.29;100912.44;6189146;22;45418;-95
2021/06/16 10:59:44;;;;;;;;;9.25;7.75;;;;;34.69;31.22;100908.50;6186883;22;47122;-95
2021/06/16 11:02:13;;;;;;;;;10.50;10.50;;;;;34.67;31.16;100902.47;6187172;22;45327;-95
2021/06/16 11:04:40;;;;;;;;;11.00;11.00;;;;;34.76;30.98;100894.97;6187198;22;45347;-96
2021/06/16 11:07:31;;;;;;;;;9.25;9.25;;;;;34.87;31.05;100897.00;6188152;22;45367;-96
2021/06/16 11:10:04;;;;;;;;;8.00;8.00;;;;;34.99;30.33;100901.75;6187416;22;47171;-93
2021/06/16 11:12:31;;;;;;;;;7.50;7.25;;;;;35.05;30.74;100888.19;6187237;22;45418;-95
2021/06/16 11:15:02;;;;;;;;;9.75;8.25;;;;;35.14;29.69;100886.09;6187632;22;45361;-95